createdAt,value
2022-11-12T00:01:13.428Z,153.70
2022-11-12T00:04:01.378Z,185.40
2022-11-12T00:06:49.308Z,260.95
2022-11-12T00:09:39.767Z,194.02
2022-11-12T00:12:27.637Z,305.00
2022-11-12T00:15:15.893Z,295.73
2022-11-12T00:18:03.968Z,139.63
2022-11-12T00:20:52.015Z,172.13
2022-11-12T00:23:40.082Z,356.77
2022-11-12T00:26:28.196Z,212.57
2022-11-12T00:29:16.191Z,296.67
2022-11-12T00:32:05.495Z,164.45
2022-11-12T00:34:53.516Z,193.38
2022-11-12T00:37:41.649Z,222.02
2022-11-12T00:40:30.140Z,239.10
2022-11-12T00:43:18.197Z,132.57
2022-11-12T00:46:06.013Z,162.32
2022-11-12T00:48:54.041Z,332.80
2022-11-12T00:51:42.293Z,228.20
2022-11-12T00:54:33.918Z,220.20
2022-11-12T00:57:24.524Z,148.23
2022-11-12T01:00:17.426Z,138.40
2022-11-12T01:03:05.315Z,172.88
2022-11-12T01:05:56.212Z,236.82
2022-11-12T01:08:44.760Z,301.30
2022-11-12T01:11:32.846Z,197.07
2022-11-12T01:14:20.739Z,164.82
2022-11-12T01:17:10.801Z,317.77
2022-11-12T01:19:58.917Z,192.00
2022-11-12T01:22:46.874Z,264.25
2022-11-12T01:25:38.691Z,255.65
2022-11-12T01:28:26.772Z,224.57
2022-11-12T01:31:38.598Z,164.50
2022-11-12T01:34:26.989Z,171.82
2022-11-12T01:37:14.879Z,298.70
2022-11-12T01:40:02.895Z,280.60
2022-11-12T01:42:54.341Z,270.27
2022-11-12T01:45:46.171Z,343.00
2022-11-12T01:48:41.424Z,273.08
2022-11-12T01:51:44.642Z,220.25
2022-11-12T01:54:32.577Z,313.38
2022-11-12T01:57:39.585Z,371.55
2022-11-12T02:00:27.858Z,242.73
2022-11-12T02:03:23.775Z,338.83
2022-11-12T02:06:15.560Z,403.83
2022-11-12T02:09:06.410Z,283.27
2022-11-12T02:11:54.581Z,204.35
2022-11-12T02:14:42.404Z,180.43
2022-11-12T02:17:30.817Z,213.82
2022-11-12T02:20:19.064Z,212.73
2022-11-12T02:23:08.301Z,275.05
2022-11-12T02:25:58.197Z,175.70
2022-11-12T02:28:46.088Z,345.02
2022-11-12T02:31:33.970Z,206.75
2022-11-12T02:34:22.079Z,296.90
2022-11-12T02:37:10.061Z,267.20
2022-11-12T02:39:58.015Z,331.25
2022-11-12T02:42:45.852Z,179.50
2022-11-12T02:45:34.054Z,243.82
2022-11-12T02:48:25.312Z,274.80
2022-11-12T02:51:16.381Z,295.08
2022-11-12T02:54:04.606Z,173.48
2022-11-12T02:56:52.591Z,200.75
2022-11-12T02:59:40.642Z,196.68
2022-11-12T03:02:28.724Z,229.48
2022-11-12T03:05:17.016Z,299.80
2022-11-12T03:08:09.577Z,250.43
2022-11-12T03:10:57.515Z,254.98
2022-11-12T03:13:45.455Z,178.25
2022-11-12T03:16:33.797Z,274.65
2022-11-12T03:19:21.933Z,257.77
2022-11-12T03:22:10.341Z,178.40
2022-11-12T03:24:58.333Z,318.90
2022-11-12T03:27:46.262Z,205.27
2022-11-12T03:30:37.798Z,227.80
2022-11-12T03:33:26.030Z,287.73
2022-11-12T03:36:14.121Z,161.90
2022-11-12T03:39:02.284Z,224.80
2022-11-12T03:41:50.248Z,143.10
2022-11-12T03:44:40.706Z,114.15
2022-11-12T03:47:28.770Z,189.25
2022-11-12T03:50:19.396Z,131.90
2022-11-12T03:53:08.125Z,166.43
2022-11-12T03:55:56.034Z,213.45
2022-11-12T03:58:43.955Z,134.65
2022-11-12T04:01:32.351Z,183.40
2022-11-12T04:04:20.186Z,217.07
2022-11-12T04:07:27.452Z,163.13
2022-11-12T04:10:15.357Z,166.23
2022-11-12T04:13:21.859Z,177.75
2022-11-12T04:16:38.220Z,368.58
2022-11-12T04:19:44.728Z,110.90
2022-11-12T04:22:32.796Z,170.93
2022-11-12T04:25:39.301Z,172.00
2022-11-12T04:28:27.377Z,197.18
2022-11-12T04:31:15.567Z,236.40
2022-11-12T04:34:22.413Z,156.23
2022-11-12T04:37:10.544Z,229.30
2022-11-12T04:40:21.299Z,254.38
2022-11-12T04:43:32.299Z,271.42
2022-11-12T04:46:20.230Z,219.90
2022-11-12T04:49:08.293Z,303.45
2022-11-12T04:52:08.203Z,209.30
2022-11-12T04:54:56.211Z,289.13
2022-11-12T04:57:44.118Z,250.18
2022-11-12T05:00:32.140Z,170.93
2022-11-12T05:03:20.102Z,239.63
2022-11-12T05:06:29.825Z,236.55
2022-11-12T05:09:19.698Z,357.60
2022-11-12T05:12:08.136Z,224.48
2022-11-12T05:14:56.028Z,278.90
2022-11-12T05:17:44.528Z,169.55
2022-11-12T05:20:32.358Z,211.45
2022-11-12T05:23:20.253Z,123.55
2022-11-12T05:26:08.133Z,206.15
2022-11-12T05:28:56.017Z,184.95
2022-11-12T05:31:44.078Z,331.83
2022-11-12T05:34:32.400Z,115.53
2022-11-12T05:37:21.046Z,123.85
2022-11-12T05:40:09.863Z,175.90
2022-11-12T05:42:57.841Z,174.73
2022-11-12T05:45:45.767Z,145.77
2022-11-12T05:48:33.982Z,196.23
2022-11-12T05:51:21.943Z,207.27
2022-11-12T05:54:12.760Z,149.43
2022-11-12T05:57:00.642Z,189.82
2022-11-12T05:59:48.523Z,147.40
2022-11-12T06:02:36.549Z,176.00
2022-11-12T06:05:24.667Z,145.07
2022-11-12T06:08:12.659Z,209.52
2022-11-12T06:11:00.716Z,101.18
2022-11-12T06:13:48.646Z,91.43
2022-11-12T06:16:36.773Z,153.50
2022-11-12T06:19:24.749Z,187.50
2022-11-12T06:22:12.713Z,116.75
2022-11-12T06:25:00.861Z,101.22
2022-11-12T06:27:49.106Z,105.93
2022-11-12T06:30:37.169Z,81.70
2022-11-12T06:33:25.107Z,57.63
2022-11-12T06:36:16.438Z,62.85
2022-11-12T06:39:04.588Z,67.05
2022-11-12T06:41:52.740Z,75.50
2022-11-12T06:44:40.731Z,90.85
2022-11-12T06:47:28.595Z,66.85
2022-11-12T06:50:16.651Z,83.80
2022-11-12T06:53:04.609Z,73.50
2022-11-12T06:55:52.793Z,67.53
2022-11-12T06:58:41.710Z,66.93
2022-11-12T07:01:30.187Z,173.55
2022-11-12T07:04:18.406Z,63.10
2022-11-12T07:07:10.577Z,153.57
2022-11-12T07:09:59.164Z,120.97
2022-11-12T07:12:53.194Z,67.25
2022-11-12T07:15:44.036Z,53.25
2022-11-12T07:18:34.793Z,61.20
2022-11-12T07:21:23.452Z,67.15
2022-11-12T07:24:12.384Z,96.22
2022-11-12T07:27:00.872Z,92.93
2022-11-12T07:29:49.329Z,65.07
2022-11-12T07:32:44.164Z,148.32
2022-11-12T07:35:37.667Z,156.15
2022-11-12T07:38:27.046Z,179.63
2022-11-12T07:41:19.407Z,116.00
2022-11-12T07:44:07.669Z,127.80
2022-11-12T07:46:57.359Z,188.90
2022-11-12T07:49:49.011Z,115.38
2022-11-12T07:52:39.811Z,144.65
2022-11-12T07:55:31.629Z,86.10
2022-11-12T07:58:19.710Z,116.60
2022-11-12T08:01:32.340Z,104.28
2022-11-12T08:04:20.184Z,93.05
2022-11-12T08:07:08.291Z,96.43
2022-11-12T08:09:56.286Z,87.13
2022-11-12T08:12:49.926Z,95.85
2022-11-12T08:15:39.457Z,94.47
2022-11-12T08:18:29.092Z,81.97
2022-11-12T08:21:19.144Z,67.90
2022-11-12T08:24:07.480Z,52.67
2022-11-12T08:26:55.293Z,44.78
2022-11-12T08:29:45.430Z,50.20
2022-11-12T08:32:33.355Z,60.50
2022-11-12T08:35:30.393Z,93.65
2022-11-12T08:38:18.349Z,164.32
2022-11-12T08:41:14.750Z,69.85
2022-11-12T08:44:08.281Z,79.88
2022-11-12T08:49:48.020Z,92.57
2022-11-12T08:52:38.921Z,65.13
2022-11-12T08:55:26.878Z,65.63
2022-11-12T08:58:18.240Z,79.50
2022-11-12T09:01:08.580Z,67.82
2022-11-12T09:03:57.085Z,126.38
2022-11-12T09:06:53.612Z,76.85
2022-11-12T09:09:46.053Z,50.35
2022-11-12T09:12:34.664Z,56.78
2022-11-12T09:15:54.703Z,106.55
2022-11-12T09:18:45.722Z,91.93
2022-11-12T09:21:38.693Z,150.95
2022-11-12T09:24:30.192Z,148.15
2022-11-12T09:27:18.409Z,242.15
2022-11-12T09:30:07.500Z,63.20
2022-11-12T09:33:01.501Z,100.75
2022-11-12T09:35:50.972Z,48.60
2022-11-12T09:38:44.966Z,99.55
2022-11-12T09:41:45.323Z,203.05
2022-11-12T09:44:38.803Z,69.85
2022-11-12T09:47:41.661Z,102.60
2022-11-12T09:50:41.069Z,85.38
2022-11-12T09:54:24.325Z,401.50
2022-11-12T09:57:13.793Z,243.93
2022-11-12T10:00:28.035Z,85.63
2022-11-12T10:04:14.648Z,185.43
2022-11-12T10:07:36.891Z,99.97
2022-11-12T10:10:50.657Z,76.90
2022-11-12T10:14:00.460Z,87.50
2022-11-12T10:17:18.571Z,73.70
2022-11-12T10:20:19.922Z,88.10
2022-11-12T10:23:25.988Z,193.05
2022-11-12T10:26:26.580Z,107.57
2022-11-12T10:29:52.432Z,54.45
2022-11-12T10:32:45.613Z,73.90
2022-11-12T10:35:51.888Z,82.85
2022-11-12T10:39:02.388Z,107.88
2022-11-12T10:42:12.863Z,66.65
2022-11-12T10:45:25.352Z,51.65
2022-11-12T10:48:37.391Z,53.10
2022-11-12T10:51:44.050Z,56.80
2022-11-12T10:54:54.947Z,78.75
2022-11-12T10:57:43.288Z,53.17
2022-11-12T11:00:33.103Z,53.85
2022-11-12T11:03:36.399Z,40.47
2022-11-12T11:06:31.823Z,39.38
2022-11-12T11:13:45.749Z,42.03
2022-11-12T11:17:10.756Z,40.38
2022-11-12T11:22:53.798Z,39.75
2022-11-12T11:25:48.613Z,30.45
2022-11-12T11:29:52.823Z,35.17
2022-11-12T11:33:54.832Z,33.65
2022-11-12T11:37:05.579Z,29.92
2022-11-12T11:40:50.294Z,28.25
2022-11-12T11:44:23.020Z,26.73
2022-11-12T11:48:08.491Z,28.77
2022-11-12T11:52:01.643Z,26.45
2022-11-12T11:55:19.971Z,27.48
2022-11-12T11:58:38.376Z,24.08
2022-11-12T12:02:11.158Z,29.23
2022-11-12T12:05:29.799Z,37.58
2022-11-12T12:09:05.344Z,40.35
2022-11-12T12:12:31.425Z,35.92
2022-11-12T12:16:00.278Z,40.22
2022-11-12T12:19:31.891Z,32.15
2022-11-12T12:22:38.457Z,31.10
2022-11-12T12:25:40.818Z,41.03
2022-11-12T12:28:43.820Z,31.95
2022-11-12T12:31:44.692Z,39.25
2022-11-12T12:34:44.538Z,75.93
2022-11-12T12:37:48.533Z,37.55
2022-11-12T12:40:49.902Z,33.75
2022-11-12T12:44:04.641Z,37.22
2022-11-12T12:49:50.499Z,41.38
2022-11-12T12:53:29.163Z,36.53
2022-11-12T12:56:23.188Z,36.45
2022-11-12T12:59:21.437Z,42.00
2022-11-12T13:02:22.246Z,46.15
2022-11-12T13:05:35.103Z,38.28
2022-11-12T13:08:26.985Z,43.08
2022-11-12T13:12:01.718Z,41.15
2022-11-12T13:15:14.218Z,48.88
2022-11-12T13:18:02.043Z,55.83
2022-11-12T13:21:14.556Z,44.83
2022-11-12T13:24:08.908Z,44.17
2022-11-12T13:26:59.645Z,38.25
2022-11-12T13:29:48.378Z,40.60
2022-11-12T13:32:47.303Z,43.50
2022-11-12T13:35:37.946Z,43.00
2022-11-12T13:38:26.591Z,45.30
2022-11-12T13:41:40.098Z,46.30
2022-11-12T13:44:29.266Z,43.67
2022-11-12T13:47:21.742Z,46.22
2022-11-12T13:50:17.008Z,49.50
2022-11-12T13:53:10.569Z,45.65
2022-11-12T13:55:59.241Z,48.28
2022-11-12T13:58:47.191Z,47.88
2022-11-12T14:01:35.108Z,57.33
2022-11-12T14:04:24.610Z,53.15
2022-11-12T14:07:49.415Z,56.63
2022-11-12T14:11:20.400Z,54.88
2022-11-12T14:15:02.164Z,56.53
2022-11-12T14:18:44.061Z,61.80
2022-11-12T14:21:32.067Z,54.63
2022-11-12T14:24:20.969Z,58.38
2022-11-12T14:27:35.321Z,64.65
2022-11-12T14:30:28.341Z,68.50
2022-11-12T14:33:22.432Z,65.75
2022-11-12T14:36:18.954Z,73.13
2022-11-12T14:39:07.443Z,68.90
2022-11-12T14:41:58.511Z,66.65
2022-11-12T14:44:46.625Z,70.97
2022-11-12T14:47:34.601Z,63.17
2022-11-12T14:50:27.411Z,63.40
2022-11-12T14:53:25.594Z,62.67
2022-11-12T14:56:34.189Z,65.78
2022-11-12T14:59:23.505Z,63.33
2022-11-12T15:02:32.520Z,59.97
2022-11-12T15:05:27.406Z,62.47
2022-11-12T15:08:33.621Z,87.40
2022-11-12T15:11:32.212Z,57.47
2022-11-12T15:14:24.209Z,67.57
2022-11-12T15:17:42.587Z,72.88
2022-11-12T15:20:30.594Z,94.63
2022-11-12T15:23:19.158Z,124.50
2022-11-12T15:26:23.444Z,328.48
2022-11-12T15:29:11.200Z,120.97
2022-11-12T15:32:23.923Z,237.63
2022-11-12T15:35:32.052Z,326.92
2022-11-12T15:38:31.699Z,393.52
2022-11-12T15:41:29.448Z,408.13
2022-11-12T15:44:17.321Z,408.75
2022-11-12T15:47:05.389Z,262.88
2022-11-12T15:49:56.711Z,234.25
2022-11-12T15:52:45.346Z,356.23
2022-11-12T15:55:34.920Z,444.95
2022-11-12T15:58:34.325Z,364.23
2022-11-12T16:01:22.316Z,279.50
2022-11-12T16:04:13.245Z,252.60
2022-11-12T16:07:01.384Z,135.30
2022-11-12T16:09:49.341Z,170.70
2022-11-12T16:12:37.408Z,204.10
2022-11-12T16:15:25.862Z,190.57
2022-11-12T16:18:13.865Z,270.90
2022-11-12T16:21:01.761Z,213.07
2022-11-12T16:23:49.605Z,382.52
2022-11-12T16:26:38.283Z,268.17
2022-11-12T16:29:26.190Z,277.85
2022-11-12T16:32:15.305Z,292.42
2022-11-12T16:35:03.321Z,284.23
2022-11-12T16:37:54.436Z,272.98
2022-11-12T16:40:44.194Z,272.02
2022-11-12T16:43:32.054Z,343.23
2022-11-12T16:46:31.278Z,371.88
2022-11-12T16:49:19.177Z,311.25
2022-11-12T16:52:09.350Z,303.98
2022-11-12T16:55:03.076Z,262.55
2022-11-12T16:57:52.384Z,441.35
2022-11-12T17:00:43.166Z,201.88
2022-11-12T17:03:31.113Z,414.70
2022-11-12T17:06:19.699Z,409.63
2022-11-12T17:09:10.826Z,365.60
2022-11-12T17:11:58.602Z,357.77
2022-11-12T17:14:46.886Z,250.15
2022-11-12T17:17:35.049Z,420.25
2022-11-12T17:20:24.107Z,351.92
2022-11-12T17:23:12.200Z,360.00
2022-11-12T17:26:05.722Z,293.63
2022-11-12T17:29:00.161Z,287.27
2022-11-12T17:31:50.378Z,477.67
2022-11-12T17:34:38.309Z,334.30
2022-11-12T17:37:31.577Z,296.60
2022-11-12T17:40:25.704Z,187.67
2022-11-12T17:46:08.586Z,230.18
2022-11-12T17:48:57.102Z,236.15
2022-11-12T17:51:45.122Z,181.38
2022-11-12T17:54:32.963Z,172.57
2022-11-12T17:57:20.858Z,284.90
2022-11-12T18:00:09.903Z,317.10
2022-11-12T18:02:58.629Z,160.55
2022-11-12T18:05:47.958Z,318.25
2022-11-12T18:08:38.700Z,201.98
2022-11-12T18:11:28.918Z,211.32
2022-11-12T18:14:17.189Z,266.42
2022-11-12T18:17:05.214Z,157.10
2022-11-12T18:19:53.246Z,262.65
2022-11-12T18:22:44.882Z,304.83
2022-11-12T18:25:35.522Z,362.15
2022-11-12T18:28:23.513Z,355.50
2022-11-12T18:31:13.284Z,277.13
2022-11-12T18:34:01.413Z,303.20
2022-11-12T18:36:49.368Z,377.80
2022-11-12T18:39:37.509Z,382.95
2022-11-12T18:42:25.439Z,269.48
2022-11-12T18:45:13.878Z,261.58
2022-11-12T18:48:01.765Z,251.05
2022-11-12T18:50:49.627Z,204.95
2022-11-12T18:53:39.430Z,211.75
2022-11-12T18:56:27.240Z,324.63
2022-11-12T18:59:15.171Z,329.40
2022-11-12T19:02:03.387Z,245.75
2022-11-12T19:04:51.465Z,265.10
2022-11-12T19:07:39.381Z,208.77
2022-11-12T19:10:29.539Z,275.13
2022-11-12T19:13:17.473Z,200.90
2022-11-12T19:16:14.192Z,279.42
2022-11-12T19:19:02.099Z,205.85
2022-11-12T19:21:50.276Z,209.35
2022-11-12T19:24:38.424Z,178.57
2022-11-12T19:27:26.472Z,344.77
2022-11-12T19:30:14.831Z,252.48
2022-11-12T19:33:03.192Z,184.95
2022-11-12T19:35:51.342Z,283.00
2022-11-12T19:38:39.639Z,408.10
2022-11-12T19:41:27.601Z,223.75
2022-11-12T19:44:17.759Z,321.85
2022-11-12T19:47:05.875Z,342.00
2022-11-12T19:49:53.996Z,228.70
2022-11-12T19:52:44.881Z,326.38
2022-11-12T19:55:37.202Z,439.00
2022-11-12T19:58:34.491Z,267.75
2022-11-12T20:01:23.158Z,378.48
2022-11-12T20:04:14.373Z,320.88
2022-11-12T20:07:02.812Z,217.15
2022-11-12T20:09:51.023Z,282.33
2022-11-12T20:12:40.333Z,619.65
2022-11-12T20:15:28.433Z,217.25
2022-11-12T20:18:19.876Z,209.32
2022-11-12T20:21:09.227Z,323.30
2022-11-12T20:24:02.785Z,142.45
2022-11-12T20:26:50.917Z,230.52
2022-11-12T20:29:38.970Z,161.77
2022-11-12T20:32:34.176Z,434.83
2022-11-12T20:35:22.589Z,181.40
2022-11-12T20:38:10.657Z,210.70
2022-11-12T20:41:00.226Z,402.27
2022-11-12T20:44:01.543Z,422.38
2022-11-12T20:46:49.684Z,248.55
2022-11-12T20:49:37.610Z,292.73
2022-11-12T20:52:25.538Z,216.23
2022-11-12T20:55:16.412Z,157.13
2022-11-12T20:58:04.273Z,176.18
2022-11-12T21:00:52.147Z,225.98
2022-11-12T21:03:41.392Z,373.55
2022-11-12T21:06:29.689Z,191.95
2022-11-12T21:09:18.546Z,247.82
2022-11-12T21:12:06.992Z,395.15
2022-11-12T21:14:55.032Z,202.80
2022-11-12T21:17:42.887Z,161.75
2022-11-12T21:20:30.663Z,159.05
2022-11-12T21:23:19.569Z,200.20
2022-11-12T21:26:15.785Z,367.00
2022-11-12T21:29:04.862Z,220.98
2022-11-12T21:31:52.948Z,267.40
2022-11-12T21:34:41.445Z,554.55
2022-11-12T21:37:29.702Z,404.35
2022-11-12T21:40:18.155Z,365.02
2022-11-12T21:43:07.355Z,531.95
2022-11-12T21:45:55.859Z,318.45
2022-11-12T21:48:45.011Z,425.63
2022-11-12T21:51:34.053Z,279.52
2022-11-12T21:54:21.938Z,328.10
2022-11-12T21:57:10.737Z,192.02
2022-11-12T22:00:26.676Z,145.93
2022-11-12T22:03:12.251Z,215.00
2022-11-12T22:06:01.759Z,412.70
2022-11-12T22:08:55.147Z,343.90
2022-11-12T22:11:43.264Z,390.88
2022-11-12T22:14:31.191Z,255.88
2022-11-12T22:17:19.105Z,223.32
2022-11-12T22:20:08.002Z,227.23
2022-11-12T22:22:56.153Z,161.52
2022-11-12T22:25:47.263Z,256.10
2022-11-12T22:28:35.951Z,308.10
2022-11-12T22:31:30.119Z,224.02
2022-11-12T22:34:22.965Z,358.55
2022-11-12T22:37:12.304Z,212.88
2022-11-12T22:40:00.220Z,271.27
2022-11-12T22:42:48.526Z,466.75
2022-11-12T22:45:36.665Z,233.82
2022-11-12T22:48:24.898Z,303.13
2022-11-12T22:51:22.722Z,296.10
2022-11-12T22:54:13.329Z,337.33
2022-11-12T22:57:01.233Z,243.85
2022-11-12T22:59:49.114Z,341.38
2022-11-12T23:02:37.281Z,333.27
2022-11-12T23:05:25.269Z,388.75
2022-11-12T23:08:13.062Z,278.30
2022-11-12T23:11:16.482Z,292.52
2022-11-12T23:14:04.488Z,415.23
2022-11-12T23:16:52.288Z,299.42
2022-11-12T23:19:40.113Z,301.67
2022-11-12T23:22:28.018Z,370.92
2022-11-12T23:25:16.067Z,300.05
2022-11-12T23:28:04.337Z,332.95
2022-11-12T23:30:52.287Z,209.15
2022-11-12T23:33:44.497Z,332.00
2022-11-12T23:36:32.597Z,234.40
2022-11-12T23:39:20.441Z,354.20
2022-11-12T23:42:08.382Z,345.67
2022-11-12T23:44:56.376Z,367.90
2022-11-12T23:47:44.226Z,403.73
2022-11-12T23:50:32.166Z,533.58
2022-11-12T23:53:20.282Z,299.70
2022-11-12T23:56:11.465Z,320.42
2022-11-12T23:58:59.404Z,178.90
